CheckWX is a tool to help pilots better visualize weather data.  It is not intended as a substitute for an official pre-flight weather briefing.

08:21:37 UTC

KMCW TAF
Mason City Municipal Airport
Mason City, Iowa, USA
KMCW 150534Z 1506/1606 25012KT P6SM SKC FM151100 27004KT P6SM SCT110 FM160100 13005KT P6SM BKN050 FM160400 14007KT 5SM BR BKN050

Nov-15@
06:00 UTC

Nov-15 @ 06:00 UTC

Nov-15@
11:00 UTC

Nov-15 @ 11:00 UTC

KMCW 150534Z 1506/1606 25012KT P6SM SKC
Wind
  • 250° at 12 KTS
Cloud Levels
  • Clear skies

Nov-15@
11:00 UTC

Nov-15 @ 11:00 UTC

Nov-16@
01:00 UTC

Nov-16 @ 01:00 UTC

FM151100 27004KT P6SM SCT110

From

From Standard forecast or significant change

Wind
  • 270° at 4 KTS
Cloud Levels
  • Scattered at 11,000' AGL

Nov-16@
01:00 UTC

Nov-16 @ 01:00 UTC

Nov-16@
04:00 UTC

Nov-16 @ 04:00 UTC

FM160100 13005KT P6SM BKN050

From

From Standard forecast or significant change

Wind
  • 130° at 5 KTS
Cloud Levels
  • Broken at 5,000' AGL

Nov-16@
04:00 UTC

Nov-16 @ 04:00 UTC

Nov-16@
06:00 UTC

Nov-16 @ 06:00 UTC

FM160400 14007KT 5SM BR BKN050

From

From Standard forecast or significant change

Wind
  • 140° at 7 KTS
Conditions
Mist
Cloud Levels
  • Broken at 5,000' AGL